createdAt,value
2023-01-18T00:02:49.319Z,99.42
2023-01-18T00:05:51.719Z,100.00
2023-01-18T00:08:55.247Z,100.00
2023-01-18T00:11:57.680Z,100.00
2023-01-18T00:15:00.097Z,100.00
2023-01-18T00:18:03.058Z,100.00
2023-01-18T00:21:07.272Z,100.00
2023-01-18T00:24:11.730Z,100.00
2023-01-18T00:27:14.261Z,100.00
2023-01-18T00:30:18.068Z,100.00
2023-01-18T00:33:20.714Z,100.00
2023-01-18T00:36:23.178Z,99.14
2023-01-18T00:39:25.620Z,96.67
2023-01-18T00:42:46.295Z,95.68
2023-01-18T00:45:48.804Z,93.54
2023-01-18T00:48:52.348Z,92.98
2023-01-18T00:51:56.781Z,91.60
2023-01-18T00:55:04.248Z,90.87
2023-01-18T00:58:06.661Z,91.17
2023-01-18T01:01:10.167Z,90.85
2023-01-18T01:04:30.997Z,90.92
2023-01-18T01:07:33.383Z,90.68
2023-01-18T01:10:36.075Z,90.53
2023-01-18T01:13:57.613Z,90.21
2023-01-18T01:17:18.599Z,90.23
2023-01-18T01:20:40.576Z,89.47
2023-01-18T01:24:01.328Z,89.04
2023-01-18T01:27:03.751Z,89.13
2023-01-18T01:30:07.574Z,88.27
2023-01-18T01:33:09.965Z,88.04
2023-01-18T01:36:17.540Z,88.45
2023-01-18T01:39:19.962Z,88.46
2023-01-18T01:42:22.370Z,88.88
2023-01-18T01:45:26.804Z,88.52
2023-01-18T01:48:29.396Z,89.15
2023-01-18T01:51:32.826Z,88.75
2023-01-18T01:54:42.849Z,89.53
2023-01-18T01:57:53.390Z,88.97
2023-01-18T02:00:55.953Z,89.62
2023-01-18T02:04:00.506Z,89.45
2023-01-18T02:07:02.956Z,89.69
2023-01-18T02:10:06.332Z,90.42
2023-01-18T02:13:10.072Z,89.90
2023-01-18T02:16:24.842Z,90.27
2023-01-18T02:19:59.412Z,89.88
2023-01-18T02:23:32.235Z,89.92
2023-01-18T02:26:59.529Z,89.35
2023-01-18T02:30:16.898Z,89.42
2023-01-18T02:33:51.728Z,89.17
2023-01-18T02:37:04.378Z,89.10
2023-01-18T02:40:16.174Z,88.74
2023-01-18T02:43:37.978Z,89.44
2023-01-18T02:46:40.815Z,89.84
2023-01-18T02:49:43.704Z,89.50
2023-01-18T02:52:53.615Z,89.57
2023-01-18T02:56:00.300Z,89.65
2023-01-18T02:59:10.396Z,90.09
2023-01-18T03:02:21.319Z,89.91
2023-01-18T03:05:24.784Z,90.54
2023-01-18T03:08:30.314Z,89.98
2023-01-18T03:12:05.616Z,89.98
2023-01-18T03:15:13.080Z,90.23
2023-01-18T03:18:15.583Z,90.70
2023-01-18T03:21:18.050Z,90.54
2023-01-18T03:24:20.532Z,91.13
2023-01-18T03:27:41.399Z,91.39
2023-01-18T03:31:03.496Z,90.83
2023-01-18T03:34:24.314Z,90.84
2023-01-18T03:37:30.579Z,90.58
2023-01-18T03:40:33.208Z,90.66
2023-01-18T03:43:37.895Z,90.26
2023-01-18T03:46:40.803Z,90.85
2023-01-18T03:49:43.246Z,90.62
2023-01-18T03:52:48.904Z,90.70
2023-01-18T03:55:53.878Z,91.56
2023-01-18T03:58:58.206Z,91.53
2023-01-18T04:02:01.559Z,91.38
2023-01-18T04:05:05.943Z,91.28
2023-01-18T04:08:08.381Z,92.29
2023-01-18T04:11:10.892Z,91.87
2023-01-18T04:14:13.262Z,92.36
2023-01-18T04:17:15.877Z,92.81
2023-01-18T04:20:18.457Z,93.07
2023-01-18T04:23:20.953Z,93.57
2023-01-18T04:26:23.358Z,93.48
2023-01-18T04:29:25.810Z,94.51
2023-01-18T04:32:28.978Z,94.23
2023-01-18T04:35:31.326Z,93.51
2023-01-18T04:38:33.863Z,93.28
2023-01-18T04:41:36.285Z,93.42
2023-01-18T04:44:38.720Z,93.77
2023-01-18T04:47:41.144Z,95.35
2023-01-18T04:50:46.519Z,96.35
2023-01-18T04:53:48.917Z,97.44
2023-01-18T04:56:51.902Z,97.83
2023-01-18T04:59:54.310Z,98.54
2023-01-18T05:02:57.217Z,98.17
2023-01-18T05:05:59.759Z,98.58
2023-01-18T05:09:02.197Z,97.90
2023-01-18T05:12:04.637Z,97.83
2023-01-18T05:15:07.709Z,98.31
2023-01-18T05:18:10.185Z,97.29
2023-01-18T05:21:13.391Z,98.25
2023-01-18T05:24:15.916Z,97.95
2023-01-18T05:27:18.482Z,98.80
2023-01-18T05:30:21.070Z,99.45
2023-01-18T05:33:23.469Z,99.79
2023-01-18T05:36:25.937Z,100.00
2023-01-18T05:39:28.641Z,100.00
2023-01-18T05:42:31.087Z,100.00
2023-01-18T05:45:33.536Z,100.00
2023-01-18T05:48:36.131Z,100.00
2023-01-18T05:51:38.705Z,100.00
2023-01-18T05:54:41.071Z,100.00
2023-01-18T05:57:43.507Z,100.00
2023-01-18T06:00:45.954Z,100.00
2023-01-18T06:03:48.394Z,100.00
2023-01-18T06:06:50.834Z,99.97
2023-01-18T06:09:53.275Z,99.74
2023-01-18T06:12:56.152Z,99.54
2023-01-18T06:16:00.047Z,99.47
2023-01-18T06:19:02.709Z,100.00
2023-01-18T06:22:05.123Z,100.00
2023-01-18T06:25:09.946Z,100.00
2023-01-18T06:28:12.408Z,100.00
2023-01-18T06:31:15.220Z,100.00
2023-01-18T06:34:18.044Z,100.00
2023-01-18T06:37:20.485Z,100.00
2023-01-18T06:40:22.868Z,100.00
2023-01-18T06:43:25.316Z,100.00
2023-01-18T06:46:27.955Z,100.00
2023-01-18T06:49:31.146Z,100.00
2023-01-18T06:52:33.590Z,100.00
2023-01-18T06:55:36.041Z,100.00
2023-01-18T06:58:38.559Z,100.00
2023-01-18T07:01:41.515Z,100.00
2023-01-18T07:04:45.498Z,100.00
2023-01-18T07:07:47.951Z,100.00
2023-01-18T07:10:52.664Z,100.00
2023-01-18T07:13:55.370Z,100.00
2023-01-18T07:16:57.917Z,100.00
2023-01-18T07:20:00.407Z,100.00
2023-01-18T07:23:04.429Z,100.00
2023-01-18T07:26:11.060Z,100.00
2023-01-18T07:29:13.508Z,100.00
2023-01-18T07:32:16.361Z,100.00
2023-01-18T07:35:22.113Z,100.00
2023-01-18T07:38:25.336Z,100.00
2023-01-18T07:41:29.465Z,100.00
2023-01-18T07:44:32.809Z,100.00
2023-01-18T07:47:36.894Z,99.56
2023-01-18T07:50:39.729Z,98.81
2023-01-18T07:53:42.568Z,98.74
2023-01-18T07:56:45.855Z,98.28
2023-01-18T07:59:49.409Z,97.77
2023-01-18T08:02:53.643Z,96.26
2023-01-18T08:05:59.046Z,96.31
2023-01-18T08:09:01.687Z,95.95
2023-01-18T08:12:06.771Z,95.83
2023-01-18T08:15:09.693Z,96.01
2023-01-18T08:18:12.973Z,96.13
2023-01-18T08:21:16.106Z,96.01
2023-01-18T08:24:19.487Z,95.95
2023-01-18T08:27:22.605Z,95.80
2023-01-18T08:30:28.110Z,95.28
2023-01-18T08:33:30.666Z,94.98
2023-01-18T08:36:33.292Z,94.99
2023-01-18T08:39:37.692Z,94.70
2023-01-18T08:42:40.145Z,93.51
2023-01-18T08:45:42.618Z,93.40
2023-01-18T08:48:45.500Z,91.83
2023-01-18T08:51:48.199Z,91.65
2023-01-18T08:54:50.776Z,91.71
2023-01-18T08:57:57.819Z,90.94
2023-01-18T09:01:00.406Z,89.05
2023-01-18T09:04:02.877Z,87.21
2023-01-18T09:07:05.421Z,87.15
2023-01-18T09:10:09.129Z,86.56
2023-01-18T09:13:11.911Z,84.38
2023-01-18T09:16:14.607Z,84.19
2023-01-18T09:19:17.126Z,82.71
2023-01-18T09:22:19.688Z,84.04
2023-01-18T09:25:22.776Z,83.72
2023-01-18T09:28:25.327Z,83.96
2023-01-18T09:31:28.690Z,84.45
2023-01-18T09:34:31.184Z,83.88
2023-01-18T09:37:33.765Z,83.34
2023-01-18T09:40:44.149Z,82.28
2023-01-18T09:43:52.576Z,81.14
2023-01-18T09:47:10.955Z,80.44
2023-01-18T09:50:17.730Z,79.11
2023-01-18T09:53:28.414Z,77.72
2023-01-18T09:56:50.228Z,78.88
2023-01-18T09:59:59.994Z,77.74
2023-01-18T10:03:10.250Z,78.88
2023-01-18T10:06:18.237Z,79.56
2023-01-18T10:09:30.188Z,79.65
2023-01-18T10:12:55.957Z,81.95
2023-01-18T10:15:58.793Z,83.08
2023-01-18T10:19:01.704Z,84.35
2023-01-18T10:22:25.636Z,84.84
2023-01-18T10:25:35.017Z,84.97
2023-01-18T10:28:55.362Z,83.12
2023-01-18T10:32:01.980Z,84.42
2023-01-18T10:35:45.309Z,84.88
2023-01-18T10:38:48.233Z,84.19
2023-01-18T10:41:51.433Z,84.28
2023-01-18T10:44:53.819Z,84.38
2023-01-18T10:47:57.914Z,86.07
2023-01-18T10:51:02.875Z,84.55
2023-01-18T10:54:27.302Z,82.10
2023-01-18T10:57:31.933Z,82.11
2023-01-18T11:00:35.434Z,80.42
2023-01-18T11:03:45.506Z,81.35
2023-01-18T11:06:53.880Z,80.41
2023-01-18T11:10:01.615Z,81.82
2023-01-18T11:13:12.159Z,82.30
2023-01-18T11:16:19.290Z,83.48
2023-01-18T11:19:22.489Z,84.58
2023-01-18T11:22:24.962Z,86.01
2023-01-18T11:25:36.642Z,85.27
2023-01-18T11:28:56.585Z,85.87
2023-01-18T11:32:06.013Z,85.67
2023-01-18T11:35:09.700Z,84.02
2023-01-18T11:38:21.238Z,83.15
2023-01-18T11:41:23.708Z,82.10
2023-01-18T11:44:29.883Z,81.99
2023-01-18T11:47:40.640Z,81.34
2023-01-18T11:50:47.329Z,80.92
2023-01-18T11:53:59.708Z,82.78
2023-01-18T11:57:03.180Z,83.18
2023-01-18T12:00:13.698Z,83.71
2023-01-18T12:03:22.405Z,83.68
2023-01-18T12:06:30.728Z,83.63
2023-01-18T12:09:55.235Z,84.92
2023-01-18T12:13:22.811Z,84.62
2023-01-18T12:16:42.740Z,84.25
2023-01-18T12:20:10.121Z,83.80
2023-01-18T12:23:50.027Z,84.48
2023-01-18T12:26:53.797Z,83.57
2023-01-18T12:30:14.353Z,84.35
2023-01-18T12:33:45.681Z,83.04
2023-01-18T12:37:20.183Z,81.67
2023-01-18T12:40:37.947Z,82.68
2023-01-18T12:43:57.616Z,83.38
2023-01-18T12:47:07.767Z,83.74
2023-01-18T12:50:23.271Z,83.60
2023-01-18T12:54:26.955Z,83.48
2023-01-18T12:57:29.999Z,83.01
2023-01-18T13:00:38.662Z,83.23
2023-01-18T13:03:44.864Z,83.48
2023-01-18T13:06:50.738Z,83.02
2023-01-18T13:09:53.960Z,83.99
2023-01-18T13:12:57.403Z,83.23
2023-01-18T13:16:09.918Z,83.43
2023-01-18T13:19:23.260Z,84.50
2023-01-18T13:22:50.474Z,83.20
2023-01-18T13:26:01.982Z,84.76
2023-01-18T13:29:14.542Z,84.47
2023-01-18T13:32:37.642Z,82.33
2023-01-18T13:35:58.687Z,82.49
2023-01-18T13:39:06.951Z,82.87
2023-01-18T13:42:24.638Z,82.71
2023-01-18T13:45:30.561Z,82.94
2023-01-18T13:48:48.056Z,81.31
2023-01-18T13:51:52.230Z,82.08
2023-01-18T13:54:54.960Z,82.30
2023-01-18T13:57:58.291Z,82.13
2023-01-18T14:01:05.954Z,81.54
2023-01-18T14:04:29.642Z,81.16
2023-01-18T14:07:39.047Z,82.75
2023-01-18T14:10:47.353Z,81.46
2023-01-18T14:13:55.559Z,82.14
2023-01-18T14:17:00.738Z,81.72
2023-01-18T14:20:37.062Z,78.28
2023-01-18T14:24:01.427Z,80.23
2023-01-18T14:27:04.997Z,82.14
2023-01-18T14:30:14.149Z,81.83
2023-01-18T14:33:16.505Z,82.95
2023-01-18T14:36:21.617Z,82.85
2023-01-18T14:39:24.394Z,83.14
2023-01-18T14:42:27.305Z,83.91
2023-01-18T14:45:37.769Z,82.95
2023-01-18T14:48:51.662Z,83.55
2023-01-18T14:51:54.658Z,82.58
2023-01-18T14:54:57.115Z,81.86
2023-01-18T14:58:14.159Z,81.08
2023-01-18T15:01:31.864Z,81.72
2023-01-18T15:04:38.821Z,82.23
2023-01-18T15:07:41.510Z,82.81
2023-01-18T15:10:44.357Z,82.84
2023-01-18T15:13:50.298Z,83.32
2023-01-18T15:16:54.625Z,83.89
2023-01-18T15:19:59.739Z,83.92
2023-01-18T15:23:02.444Z,84.74
2023-01-18T15:26:06.286Z,85.68
2023-01-18T15:29:14.598Z,86.88
2023-01-18T15:32:22.216Z,86.65
2023-01-18T15:38:35.733Z,87.05
2023-01-18T15:41:39.491Z,87.24
2023-01-18T15:44:50.574Z,87.48
2023-01-18T15:47:59.909Z,87.71
2023-01-18T15:51:07.792Z,86.98
2023-01-18T15:54:16.547Z,87.16
2023-01-18T15:57:19.780Z,87.31
2023-01-18T16:00:27.890Z,87.36
2023-01-18T16:04:00.949Z,86.93
2023-01-18T16:07:26.286Z,87.60
2023-01-18T16:10:30.440Z,87.46
2023-01-18T16:13:36.261Z,88.75
2023-01-18T16:16:42.260Z,89.17
2023-01-18T16:19:47.564Z,89.13
2023-01-18T16:22:53.664Z,88.76
2023-01-18T16:26:03.867Z,88.13
2023-01-18T16:29:08.188Z,88.49
2023-01-18T16:32:22.948Z,88.05
2023-01-18T16:35:25.658Z,88.47
2023-01-18T16:38:28.244Z,88.11
2023-01-18T16:41:32.304Z,88.07
2023-01-18T16:44:36.153Z,88.24
2023-01-18T16:47:38.850Z,88.65
2023-01-18T16:50:42.716Z,88.90
2023-01-18T16:53:45.761Z,88.84
2023-01-18T16:56:48.917Z,88.76
2023-01-18T16:59:51.409Z,88.89
2023-01-18T17:02:53.945Z,88.56
2023-01-18T17:05:56.540Z,89.34
2023-01-18T17:08:58.950Z,90.30
2023-01-18T17:12:01.378Z,90.06
2023-01-18T17:15:04.105Z,89.21
2023-01-18T17:18:08.360Z,89.22
2023-01-18T17:21:11.985Z,89.82
2023-01-18T17:24:15.197Z,88.95
2023-01-18T17:27:18.906Z,89.62
2023-01-18T17:30:22.171Z,89.83
2023-01-18T17:33:25.486Z,91.68
2023-01-18T17:36:28.072Z,93.11
2023-01-18T17:39:43.840Z,94.17
2023-01-18T17:42:52.908Z,94.03
2023-01-18T17:46:01.451Z,94.12
2023-01-18T17:49:04.568Z,95.26
2023-01-18T17:52:07.646Z,96.03
2023-01-18T17:55:12.163Z,96.00
2023-01-18T17:58:14.918Z,96.39
2023-01-18T18:01:17.766Z,95.53
2023-01-18T18:04:20.461Z,95.62
2023-01-18T18:07:22.906Z,96.04
2023-01-18T18:10:25.323Z,95.69
2023-01-18T18:13:29.562Z,95.65
2023-01-18T18:16:34.442Z,95.93
2023-01-18T18:19:41.370Z,95.61
2023-01-18T18:22:44.344Z,95.46
2023-01-18T18:25:48.101Z,95.04
2023-01-18T18:28:50.582Z,95.47
2023-01-18T18:31:53.397Z,95.93
2023-01-18T18:34:56.002Z,96.59
2023-01-18T18:44:38.703Z,96.87
2023-01-18T18:47:41.545Z,96.33
2023-01-18T18:50:44.048Z,95.73
2023-01-18T18:53:46.478Z,95.65
2023-01-18T18:56:49.122Z,95.21
2023-01-18T18:59:51.518Z,95.25
2023-01-18T19:02:59.013Z,96.32
2023-01-18T19:06:01.865Z,95.52
2023-01-18T19:09:05.706Z,95.61
2023-01-18T19:12:08.670Z,94.78
2023-01-18T19:15:11.571Z,95.18
2023-01-18T19:18:14.883Z,95.74
2023-01-18T19:21:18.447Z,96.15
2023-01-18T19:24:21.567Z,96.30
2023-01-18T19:27:24.664Z,96.18
2023-01-18T19:30:27.665Z,96.65
2023-01-18T19:33:30.436Z,96.21
2023-01-18T19:36:34.064Z,97.02
2023-01-18T19:39:36.796Z,97.09
2023-01-18T19:42:39.991Z,97.24
2023-01-18T19:45:42.704Z,98.28
2023-01-18T19:48:46.852Z,98.62
2023-01-18T19:51:51.770Z,98.76
2023-01-18T19:54:54.587Z,98.37
2023-01-18T19:57:58.265Z,98.48
2023-01-18T20:01:10.597Z,98.80
2023-01-18T20:04:13.760Z,98.54
2023-01-18T20:07:16.710Z,98.34
2023-01-18T20:10:20.386Z,99.03
2023-01-18T20:13:23.345Z,99.56
2023-01-18T20:16:26.141Z,99.12
2023-01-18T20:19:28.563Z,99.81
2023-01-18T20:22:31.544Z,99.93
2023-01-18T20:25:34.172Z,99.20
2023-01-18T20:28:37.278Z,99.77
2023-01-18T20:31:41.058Z,99.22
2023-01-18T20:34:47.012Z,100.00
2023-01-18T20:37:50.126Z,99.90
2023-01-18T20:40:54.698Z,100.00
2023-01-18T20:43:58.124Z,100.00
2023-01-18T20:47:00.811Z,100.00
2023-01-18T20:50:04.646Z,100.00
2023-01-18T20:53:08.002Z,98.74
2023-01-18T20:56:27.893Z,99.80
2023-01-18T20:59:31.820Z,100.00
2023-01-18T21:02:34.430Z,99.59
2023-01-18T21:05:37.138Z,100.00
2023-01-18T21:08:39.983Z,99.26
2023-01-18T21:11:42.717Z,98.99
2023-01-18T21:14:46.389Z,98.26
2023-01-18T21:17:48.866Z,96.68
2023-01-18T21:20:56.142Z,96.39
2023-01-18T21:23:59.407Z,95.83
2023-01-18T21:27:01.758Z,95.39
2023-01-18T21:30:04.511Z,94.80
2023-01-18T21:33:09.886Z,94.37
2023-01-18T21:36:15.055Z,93.67
2023-01-18T21:39:25.228Z,93.65
2023-01-18T21:42:47.197Z,94.99
2023-01-18T21:45:55.513Z,95.28
2023-01-18T21:49:02.750Z,96.24
2023-01-18T21:52:24.125Z,96.27
2023-01-18T21:55:26.584Z,97.73
2023-01-18T21:58:47.280Z,97.62
2023-01-18T22:01:49.987Z,99.28
2023-01-18T22:05:03.539Z,99.90
2023-01-18T22:08:06.074Z,100.00
2023-01-18T22:11:08.483Z,98.31
2023-01-18T22:14:11.360Z,97.20
2023-01-18T22:17:13.918Z,97.74
2023-01-18T22:20:17.075Z,98.13
2023-01-18T22:23:19.470Z,99.29
2023-01-18T22:26:23.307Z,99.04
2023-01-18T22:29:25.699Z,99.93
2023-01-18T22:32:28.120Z,99.45
2023-01-18T22:35:31.463Z,98.25
2023-01-18T22:38:33.981Z,98.09
2023-01-18T22:41:36.425Z,97.91
2023-01-18T22:44:38.816Z,99.01
2023-01-18T22:47:41.244Z,98.67
2023-01-18T22:50:44.358Z,98.48
2023-01-18T22:53:47.984Z,98.60
2023-01-18T22:56:50.458Z,98.96
2023-01-18T22:59:52.877Z,98.29
2023-01-18T23:02:55.328Z,98.22
2023-01-18T23:05:59.449Z,99.30
2023-01-18T23:09:01.970Z,99.52
2023-01-18T23:12:04.703Z,100.00
2023-01-18T23:15:25.940Z,100.00
2023-01-18T23:18:28.724Z,100.00
2023-01-18T23:21:31.167Z,100.00
2023-01-18T23:24:37.424Z,100.00
2023-01-18T23:27:39.884Z,100.00
2023-01-18T23:30:42.271Z,100.00
2023-01-18T23:33:45.071Z,100.00
2023-01-18T23:36:47.492Z,100.00
2023-01-18T23:40:08.647Z,100.00
2023-01-18T23:43:29.644Z,100.00
2023-01-18T23:46:50.474Z,100.00
2023-01-18T23:50:11.565Z,100.00
2023-01-18T23:53:32.485Z,100.00
2023-01-18T23:56:35.030Z,100.00
2023-01-18T23:59:37.788Z,100.00
